Time;durP1;ratioP1;P1;durP2;ratioP2;P2;SDS_P1;SDS_P2;PMS_P1;PMS_P2;Temp;Humidity;BMP_temperature;BMP_pressure;BME280_temperature;BME280_humidity;BME280_pressure;Samples;Min_cycle;Max_cycle;Signal;HPM_P1;HPM_P2
2022/12/09 00:00:01;;;;;;;24.55;11.40;;;;;;;-2.79;100.00;97540.47;2595430;28;20084;-86
2022/12/09 00:01:21;;;;;;;29.17;11.57;;;;;;;-2.67;100.00;97529.50;2595760;28;20083;-83
2022/12/09 00:02:37;;;;;;;24.77;10.65;;;;;;;-2.58;100.00;97537.28;2595971;28;20045;-85
2022/12/09 00:03:54;;;;;;;27.05;10.82;;;;;;;-2.59;100.00;97530.41;2596065;28;20420;-83
2022/12/09 00:05:09;;;;;;;26.40;10.40;;;;;;;-2.52;100.00;97538.16;2595835;28;20179;-82
2022/12/09 00:06:28;;;;;;;27.02;11.98;;;;;;;-2.52;100.00;97533.03;2595716;28;20143;-82
2022/12/09 00:07:43;;;;;;;28.50;11.30;;;;;;;-2.43;100.00;97528.84;2595903;28;20132;-83
2022/12/09 00:08:59;;;;;;;27.55;11.65;;;;;;;-2.52;100.00;97531.31;2596096;28;20050;-82
2022/12/09 00:10:14;;;;;;;27.17;11.32;;;;;;;-2.48;100.00;97527.09;2596073;28;20049;-82
2022/12/09 00:11:30;;;;;;;30.08;12.50;;;;;;;-2.69;100.00;97523.50;2595708;28;20053;-85
2022/12/09 00:12:46;;;;;;;27.27;12.05;;;;;;;-2.90;100.00;97527.53;2596113;28;20450;-86
2022/12/09 00:14:01;;;;;;;22.83;11.00;;;;;;;-2.59;100.00;97527.00;2595664;28;20045;-83
2022/12/09 00:15:17;;;;;;;28.58;12.73;;;;;;;-2.56;100.00;97525.34;2595375;28;20050;-83
2022/12/09 00:16:33;;;;;;;30.27;13.57;;;;;;;-2.52;100.00;97528.75;2595391;28;20063;-83
2022/12/09 00:17:48;;;;;;;31.42;12.98;;;;;;;-2.52;100.00;97525.34;2595864;28;20057;-82
2022/12/09 00:19:06;;;;;;;30.13;13.35;;;;;;;-2.56;100.00;97527.91;2595463;28;20100;-82
2022/12/09 00:20:21;;;;;;;38.17;17.10;;;;;;;-2.56;100.00;97530.47;2595689;28;20135;-82
2022/12/09 00:21:37;;;;;;;49.58;18.05;;;;;;;-2.33;100.00;97534.06;2595480;28;20264;-84
2022/12/09 00:22:55;;;;;;;50.15;20.55;;;;;;;-2.32;100.00;97530.66;2595741;28;20500;-84
2022/12/09 00:24:12;;;;;;;48.15;17.58;;;;;;;-2.32;100.00;97528.09;2595803;28;20049;-83
2022/12/09 00:25:28;;;;;;;50.03;18.80;;;;;;;-2.33;100.00;97527.22;2595871;28;20897;-83
2022/12/09 00:26:43;;;;;;;47.65;18.45;;;;;;;-2.29;100.00;97533.25;2595722;28;20064;-88
2022/12/09 00:27:59;;;;;;;48.72;18.02;;;;;;;-2.09;100.00;97527.44;2595736;28;20049;-86
2022/12/09 00:29:14;;;;;;;40.30;18.13;;;;;;;-2.11;100.00;97535.09;2595851;28;20119;-82
2022/12/09 00:30:30;;;;;;;38.40;15.85;;;;;;;-2.62;100.00;97529.53;2595513;28;20053;-84
2022/12/09 00:31:46;;;;;;;35.65;14.73;;;;;;;-2.45;100.00;97524.56;2595365;28;20516;-83
2022/12/09 00:33:01;;;;;;;41.63;16.17;;;;;;;-2.39;100.00;97528.88;2595626;28;20092;-83
2022/12/09 00:34:17;;;;;;;40.33;14.35;;;;;;;-2.74;100.00;97531.13;2595580;28;20049;-83
2022/12/09 00:35:32;;;;;;;33.08;14.05;;;;;;;-3.06;100.00;97521.41;2595546;28;20053;-82
2022/12/09 00:36:48;;;;;;;29.58;13.18;;;;;;;-2.75;100.00;97529.41;2595453;28;20056;-83
2022/12/09 00:38:04;;;;;;;34.88;14.32;;;;;;;-2.72;100.00;97523.47;2595471;28;20419;-83
2022/12/09 00:39:19;;;;;;;29.50;12.60;;;;;;;-2.72;100.00;97518.34;2595722;28;20204;-83
2022/12/09 00:40:35;;;;;;;28.08;12.27;;;;;;;-2.46;100.00;97523.72;2595237;28;20080;-86
2022/12/09 00:41:51;;;;;;;26.52;10.85;;;;;;;-2.38;100.00;97523.78;2595558;28;20831;-82
2022/12/09 00:43:06;;;;;;;24.08;11.02;;;;;;;-2.58;100.00;97532.16;2595321;28;20295;-84
2022/12/09 00:44:22;;;;;;;23.88;9.95;;;;;;;-2.63;100.00;97530.38;2595743;28;20112;-86
2022/12/09 00:45:37;;;;;;;28.75;10.63;;;;;;;-2.58;100.00;97531.28;2595474;28;20076;-83
2022/12/09 00:46:53;;;;;;;27.30;9.63;;;;;;;-2.45;100.00;97527.13;2595509;28;20058;-85
2022/12/09 00:48:09;;;;;;;26.20;10.88;;;;;;;-2.53;100.00;97532.16;2595324;28;20054;-85
2022/12/09 00:49:24;;;;;;;28.98;12.43;;;;;;;-2.64;100.00;97534.63;2595891;28;20065;-84
2022/12/09 00:50:40;;;;;;;34.45;13.25;;;;;;;-2.57;100.00;97538.13;2597126;28;20084;-83
2022/12/09 00:51:56;;;;;;;30.17;12.73;;;;;;;-2.55;100.00;97528.75;2597649;28;20118;-83
2022/12/09 00:53:11;;;;;;;31.60;12.68;;;;;;;-2.54;100.00;97535.59;2597633;28;20095;-84
2022/12/09 00:54:27;;;;;;;28.27;12.60;;;;;;;-2.48;100.00;97537.34;2597599;28;20696;-84
2022/12/09 00:55:43;;;;;;;32.40;12.98;;;;;;;-2.64;100.00;97531.22;2597705;28;20049;-85
2022/12/09 00:56:59;;;;;;;33.72;13.82;;;;;;;-2.84;100.00;97539.56;2597530;28;20594;-83
2022/12/09 00:58:15;;;;;;;31.92;13.13;;;;;;;-2.64;100.00;97534.63;2597413;28;20099;-85
2022/12/09 00:59:30;;;;;;;36.67;12.93;;;;;;;-2.68;100.00;97545.72;2596528;28;20551;-84
2022/12/09 01:00:46;;;;;;;35.10;13.27;;;;;;;-2.80;100.00;97546.41;2596987;28;20049;-87
2022/12/09 01:02:02;;;;;;;30.45;12.75;;;;;;;-2.70;100.00;97543.13;2597694;28;20081;-84
2022/12/09 01:03:17;;;;;;;27.98;11.43;;;;;;;-2.71;100.00;97541.41;2597532;28;20060;-89
2022/12/09 01:04:33;;;;;;;33.40;13.57;;;;;;;-2.77;100.00;97540.47;2597557;28;20053;-86
2022/12/09 01:05:49;;;;;;;30.17;12.05;;;;;;;-2.79;100.00;97542.16;2597475;28;20050;-86
2022/12/09 01:07:05;;;;;;;24.05;12.13;;;;;;;-2.75;100.00;97546.47;2597556;28;20138;-85
2022/12/09 01:08:20;;;;;;;26.48;12.40;;;;;;;-2.68;100.00;97544.84;2597150;28;20049;-84
2022/12/09 01:09:36;;;;;;;26.42;12.07;;;;;;;-2.66;100.00;97546.59;2597365;28;20128;-86
2022/12/09 01:10:52;;;;;;;28.33;11.45;;;;;;;-2.93;100.00;97550.56;2597207;28;20124;-85
2022/12/09 01:12:07;;;;;;;29.35;12.43;;;;;;;-2.83;100.00;97554.09;2597292;28;20088;-84
2022/12/09 01:13:23;;;;;;;21.67;9.18;;;;;;;-3.07;100.00;97549.53;2597498;28;20428;-84
2022/12/09 01:14:38;;;;;;;23.05;9.93;;;;;;;-3.02;100.00;97553.88;2597600;28;20045;-83
2022/12/09 01:15:54;;;;;;;22.83;9.23;;;;;;;-2.83;100.00;97554.09;2597491;28;20115;-85
2022/12/09 01:17:10;;;;;;;23.83;9.88;;;;;;;-2.84;100.00;97554.91;2597441;28;20091;-85
2022/12/09 01:18:25;;;;;;;20.27;9.07;;;;;;;-2.99;100.00;97550.50;2597330;28;20053;-85
2022/12/09 01:19:41;;;;;;;23.08;10.02;;;;;;;-2.93;100.00;97554.81;2597269;28;20044;-85
2022/12/09 01:20:57;;;;;;;19.77;8.32;;;;;;;-3.08;100.00;97551.22;2597377;28;20159;-85
2022/12/09 01:22:13;;;;;;;24.02;8.90;;;;;;;-2.97;100.00;97553.94;2597133;28;20519;-84
2022/12/09 01:23:29;;;;;;;24.17;8.95;;;;;;;-3.03;100.00;97557.28;2597305;28;20049;-85
2022/12/09 01:24:45;;;;;;;19.67;8.60;;;;;;;-3.01;100.00;97554.72;2596271;28;20132;-85
2022/12/09 01:26:05;;;;;;;19.90;8.85;;;;;;;-3.18;100.00;97559.66;2596752;28;20060;-84
2022/12/09 01:27:21;;;;;;;20.35;8.95;;;;;;;-2.93;100.00;97555.69;2597163;28;20073;-85
2022/12/09 01:28:38;;;;;;;20.48;8.82;;;;;;;-3.03;100.00;97549.59;2597202;28;20049;-84
2022/12/09 01:29:54;;;;;;;25.05;9.52;;;;;;;-2.98;100.00;97549.66;2597346;28;20155;-88
2022/12/09 01:31:13;;;;;;;21.13;8.57;;;;;;;-2.81;100.00;97548.97;2597162;28;20113;-84
2022/12/09 01:32:28;;;;;;;19.15;8.32;;;;;;;-2.81;100.00;97547.25;2597031;28;20160;-89
2022/12/09 01:33:44;;;;;;;19.38;7.68;;;;;;;-2.78;100.00;97555.00;2597231;28;20057;-85
2022/12/09 01:35:01;;;;;;;16.17;7.82;;;;;;;-2.90;100.00;97544.63;2597419;28;20083;-84
2022/12/09 01:36:19;;;;;;;19.67;7.80;;;;;;;-2.84;100.00;97550.69;2597352;28;20053;-85
2022/12/09 01:37:36;;;;;;;19.23;8.05;;;;;;;-2.91;100.00;97548.88;2597300;28;20980;-83
2022/12/09 01:38:53;;;;;;;14.30;7.32;;;;;;;-3.11;100.00;97546.09;2597002;28;20053;-85
2022/12/09 01:40:15;;;;;;;20.05;7.60;;;;;;;-3.05;100.00;97546.16;2597278;28;20050;-83
2022/12/09 01:41:30;;;;;;;;;;;;;;;-3.06;100.00;97538.47;2597807;28;20571;-85
2022/12/09 01:42:49;;;;;;;19.67;7.25;;;;;;;-3.14;100.00;97541.81;2597047;28;19951;-83
2022/12/09 01:44:22;;;;;;;18.27;8.43;;;;;;;-3.17;100.00;97539.19;2597211;28;20041;-84
2022/12/09 01:45:40;;;;;;;18.85;7.75;;;;;;;-3.19;100.00;97545.16;2597112;28;20068;-85
2022/12/09 01:46:58;;;;;;;19.75;8.20;;;;;;;-3.17;100.00;97536.63;2596892;28;20095;-89
2022/12/09 01:48:18;;;;;;;19.48;8.02;;;;;;;-3.33;100.00;97540.72;2596955;28;20069;-84
2022/12/09 01:49:37;;;;;;;16.73;7.88;;;;;;;-3.22;100.00;97534.84;2597026;28;20053;-84
2022/12/09 01:50:57;;;;;;;20.23;7.68;;;;;;;-3.23;100.00;97536.56;2596814;28;20100;-84
2022/12/09 01:52:17;;;;;;;18.27;7.95;;;;;;;-3.18;100.00;97531.50;2602804;28;20053;-83
2022/12/09 01:53:37;;;;;;;24.38;9.15;;;;;;;-3.20;100.00;97535.75;2599683;28;20341;-84
2022/12/09 01:54:53;;;;;;;24.48;9.25;;;;;;;-3.13;100.00;97530.72;2597138;28;20100;-84
2022/12/09 01:56:14;;;;;;;29.52;10.13;;;;;;;-2.93;100.00;97529.19;2596115;28;20045;-89
2022/12/09 01:57:29;;;;;;;22.55;10.35;;;;;;;-2.93;100.00;97524.94;2596680;28;20476;-84
2022/12/09 01:58:47;;;;;;;20.75;9.63;;;;;;;-2.84;100.00;97519.06;2596905;28;20064;-83
2022/12/09 02:00:03;;;;;;;24.40;9.63;;;;;;;-2.84;100.00;97524.19;2596489;28;20111;-85
2022/12/09 02:01:19;;;;;;;21.88;9.18;;;;;;;-2.76;100.00;97522.56;2596271;28;20045;-86
2022/12/09 02:02:36;;;;;;;29.42;13.07;;;;;;;-3.02;100.00;97520.59;2596350;28;20554;-83
2022/12/09 02:03:53;;;;;;;35.63;12.45;;;;;;;-2.85;100.00;97522.47;2596956;28;20057;-83
2022/12/09 02:05:10;;;;;;;36.85;13.27;;;;;;;-2.85;100.00;97525.91;2596739;28;20053;-85
2022/12/09 02:06:25;;;;;;;39.05;15.13;;;;;;;-2.85;100.00;97517.34;2596900;28;20049;-84
2022/12/09 02:07:41;;;;;;;43.55;15.48;;;;;;;-2.89;100.00;97520.72;2596927;28;20049;-84
2022/12/09 02:08:57;;;;;;;47.00;16.55;;;;;;;-2.97;100.00;97520.66;2596665;28;20054;-84
2022/12/09 02:10:15;;;;;;;48.72;17.20;;;;;;;-2.95;100.00;97516.41;2596875;28;20104;-84
2022/12/09 02:11:59;;;;;;;52.17;16.10;;;;;;;-2.88;100.00;97520.72;2596506;28;20048;-83
2022/12/09 02:13:33;;;;;;;44.83;15.48;;;;;;;-3.00;100.00;97524.03;2596623;28;20060;-84
2022/12/09 02:15:07;;;;;;;61.50;16.55;;;;;;;-3.22;100.00;97517.78;2596710;28;20127;-86
2022/12/09 02:16:27;;;;;;;64.05;18.55;;;;;;;-3.28;100.00;97521.13;2596731;28;20145;-84
2022/12/09 02:17:53;;;;;;;66.30;17.42;;;;;;;-3.41;100.00;97521.81;2596757;28;20091;-83
2022/12/09 02:19:25;;;;;;;69.97;18.02;;;;;;;-3.55;100.00;97509.72;2597092;28;20060;-86
2022/12/09 02:20:48;;;;;;;58.22;17.35;;;;;;;-3.53;100.00;97519.97;2596662;28;20136;-83
2022/12/09 02:22:06;;;;;;;61.22;17.42;;;;;;;-3.66;100.00;97513.81;2596882;28;20127;-83
2022/12/09 02:23:23;;;;;;;58.35;16.95;;;;;;;-3.59;100.00;97519.88;2596167;28;20100;-84
2022/12/09 02:24:54;;;;;;;52.95;18.33;;;;;;;-3.68;100.00;97518.06;2596745;28;20648;-85
2022/12/09 02:26:21;;;;;;;54.75;17.50;;;;;;;-3.45;100.00;97509.84;2596323;28;20060;-85
2022/12/09 02:27:45;;;;;;;53.30;16.70;;;;;;;-3.49;100.00;97508.06;2596638;28;20091;-89
2022/12/09 02:29:27;;;;;;;51.83;16.25;;;;;;;-3.65;100.00;97512.97;2596734;28;20067;-85
2022/12/09 02:31:00;;;;;;;48.83;15.73;;;;;;;-3.81;100.00;97511.06;2596495;28;20231;-85
2022/12/09 02:32:35;;;;;;;85.40;18.73;;;;;;;-3.66;100.00;97511.25;2596492;28;20081;-85
2022/12/09 02:34:11;;;;;;;86.40;18.52;;;;;;;-3.64;100.00;97509.56;2596836;28;20476;-84
2022/12/09 02:35:40;;;;;;;49.40;16.67;;;;;;;-3.65;100.00;97510.41;2596793;28;20049;-85
2022/12/09 02:37:09;;;;;;;51.80;15.85;;;;;;;-3.56;100.00;97507.16;2596646;28;20544;-85
2022/12/09 02:38:29;;;;;;;44.67;15.63;;;;;;;-3.55;100.00;97512.28;2596869;28;20057;-85
2022/12/09 02:39:52;;;;;;;46.70;15.55;;;;;;;-3.54;100.00;97510.59;2596645;28;20056;-84
2022/12/09 02:41:26;;;;;;;47.85;15.27;;;;;;;-3.71;100.00;97512.91;2596553;28;20216;-85
2022/12/09 02:42:44;;;;;;;55.10;17.50;;;;;;;-3.65;100.00;97514.69;2596483;28;20534;-85
2022/12/09 02:44:05;;;;;;;53.25;17.23;;;;;;;-3.87;100.00;97516.94;2596428;28;20107;-84
2022/12/09 02:45:23;;;;;;;53.85;17.08;;;;;;;-3.95;100.00;97511.72;2596437;28;20045;-84
2022/12/09 02:46:41;;;;;;;65.70;19.50;;;;;;;-4.11;100.00;97510.66;2596566;28;20833;-86
2022/12/09 02:48:00;;;;;;;53.50;18.98;;;;;;;-4.12;100.00;97514.88;2596378;28;20163;-84
2022/12/09 02:49:18;;;;;;;55.63;16.90;;;;;;;-4.16;100.00;97513.13;2596427;28;20049;-84
2022/12/09 02:50:36;;;;;;;44.22;16.92;;;;;;;-4.15;100.00;97516.53;2596430;28;20056;-84
2022/12/09 02:51:52;;;;;;;50.88;18.05;;;;;;;-4.21;100.00;97517.28;2596064;28;20114;-85
2022/12/09 02:53:12;;;;;;;47.25;16.27;;;;;;;-4.21;100.00;97512.19;2596520;28;20057;-85
2022/12/09 02:54:31;;;;;;;49.05;17.00;;;;;;;-4.11;100.00;97508.94;2596418;28;20440;-84
2022/12/09 02:55:48;;;;;;;41.25;15.73;;;;;;;-4.04;100.00;97519.28;2596119;28;20480;-85
2022/12/09 02:57:13;;;;;;;45.38;16.65;;;;;;;-4.04;100.00;97515.00;2596482;28;20049;-85
2022/12/09 02:58:29;;;;;;;35.78;14.55;;;;;;;-3.94;100.00;97504.91;2596549;28;20412;-85
2022/12/09 02:59:44;;;;;;;36.17;15.55;;;;;;;-4.00;100.00;97506.53;2596389;28;20065;-86
2022/12/09 03:01:00;;;;;;;40.33;16.38;;;;;;;-3.97;100.00;97503.16;2596512;28;20469;-85
2022/12/09 03:02:24;;;;;;;34.00;15.25;;;;;;;-4.18;100.00;97498.59;2596400;28;20045;-85
2022/12/09 03:03:40;;;;;;;34.20;13.90;;;;;;;-4.08;100.00;97502.13;2596315;28;20515;-85
2022/12/09 03:05:09;;;;;;;28.05;12.10;;;;;;;-4.17;100.00;97502.88;2596143;28;20049;-84
2022/12/09 03:06:30;;;;;;;27.40;11.63;;;;;;;-4.27;100.00;97501.88;2596179;28;20049;-85
2022/12/09 03:08:11;;;;;;;25.88;12.15;;;;;;;-4.27;100.00;97496.75;2596478;28;20133;-88
2022/12/09 03:09:34;;;;;;;30.08;11.88;;;;;;;-4.15;100.00;97499.50;2596151;28;20085;-88
2022/12/09 03:10:50;;;;;;;44.78;14.02;;;;;;;-3.97;100.00;97495.50;2595928;28;20078;-84
2022/12/09 03:12:09;;;;;;;31.00;12.85;;;;;;;-3.75;100.00;97499.22;2596318;28;20049;-85
2022/12/09 03:13:24;;;;;;;41.67;13.35;;;;;;;-3.76;100.00;97504.31;2595930;28;20148;-85
2022/12/09 03:14:46;;;;;;;38.47;13.45;;;;;;;-3.90;100.00;97501.56;2596205;28;20052;-85
2022/12/09 03:16:32;;;;;;;34.08;13.68;;;;;;;-4.08;100.00;97502.13;2596255;28;20519;-85
2022/12/09 03:17:51;;;;;;;39.75;14.57;;;;;;;-4.08;100.00;97500.47;2596520;28;20046;-84
2022/12/09 03:19:13;;;;;;;43.65;14.60;;;;;;;-4.03;100.00;97498.81;2595993;28;20451;-86
2022/12/09 03:20:30;;;;;;;56.33;16.63;;;;;;;-4.00;100.00;97503.97;2596080;28;20514;-87
2022/12/09 03:21:48;;;;;;;40.15;14.60;;;;;;;-4.12;100.00;97498.66;2596014;28;20385;-85
2022/12/09 03:23:06;;;;;;;53.40;16.25;;;;;;;-4.10;100.00;97499.59;2595951;28;20095;-83
2022/12/09 03:24:40;;;;;;;44.28;15.00;;;;;;;-4.04;100.00;97496.25;2595962;28;20053;-85
2022/12/09 03:25:58;;;;;;;44.90;15.10;;;;;;;-4.17;100.00;97490.97;2595956;28;20128;-85
2022/12/09 03:27:21;;;;;;;40.60;15.07;;;;;;;-4.21;100.00;97485.78;2595991;28;20149;-84
2022/12/09 03:28:45;;;;;;;42.70;16.45;;;;;;;-4.12;100.00;97484.22;2595996;28;20049;-90
2022/12/09 03:30:03;;;;;;;40.92;15.02;;;;;;;-3.97;100.00;97481.03;2596147;28;20467;-85
2022/12/09 03:31:22;;;;;;;38.45;15.35;;;;;;;-3.88;100.00;97485.41;2595847;28;20053;-88
2022/12/09 03:32:40;;;;;;;34.60;14.63;;;;;;;-3.89;100.00;97477.69;2595946;28;20053;-85
2022/12/09 03:34:00;;;;;;;36.05;13.48;;;;;;;-3.85;100.00;97482.88;2595629;28;20064;-84
2022/12/09 03:35:38;;;;;;;31.15;13.48;;;;;;;-3.91;100.00;97480.25;2596139;28;20068;-84
2022/12/09 03:36:56;;;;;;;25.30;10.23;;;;;;;-3.86;100.00;97478.63;2596196;28;20060;-85
2022/12/09 03:38:17;;;;;;;40.03;13.10;;;;;;;-3.89;100.00;97472.59;2596209;28;20167;-85
2022/12/09 03:39:35;;;;;;;41.30;13.30;;;;;;;-3.82;100.00;97466.72;2595924;28;20052;-84
2022/12/09 03:41:03;;;;;;;64.18;15.52;;;;;;;-4.18;100.00;97471.34;2595777;28;20227;-85
2022/12/09 03:42:24;;;;;;;53.65;17.15;;;;;;;-4.30;100.00;97473.72;2595839;28;20488;-86
2022/12/09 03:43:46;;;;;;;47.22;16.75;;;;;;;-3.98;100.00;97475.88;2595912;28;20424;-85
2022/12/09 03:45:08;;;;;;;53.65;16.30;;;;;;;-4.05;100.00;97477.50;2595826;28;20049;-88
2022/12/09 03:46:26;;;;;;;50.88;17.35;;;;;;;-4.15;100.00;97470.50;2595566;28;20176;-84
2022/12/09 03:47:41;;;;;;;55.95;16.77;;;;;;;-4.03;100.00;97469.84;2595547;28;20076;-86
2022/12/09 03:48:57;;;;;;;54.80;19.23;;;;;;;-4.22;100.00;97467.00;2595847;28;20049;-85
2022/12/09 03:50:13;;;;;;;60.13;19.05;;;;;;;-4.40;100.00;97463.34;2595458;28;20145;-84
2022/12/09 03:51:45;;;;;;;50.97;17.70;;;;;;;-4.44;100.00;97458.16;2595310;28;20495;-87
2022/12/09 03:53:08;;;;;;;52.28;17.15;;;;;;;-4.35;100.00;97460.00;2595633;28;20075;-85
2022/12/09 03:54:29;;;;;;;64.53;19.45;;;;;;;-4.32;100.00;97455.78;2595727;28;20535;-86
2022/12/09 03:56:05;;;;;;;52.90;18.27;;;;;;;-4.36;100.00;97456.59;2595760;28;20408;-85
2022/12/09 03:57:22;;;;;;;59.60;17.25;;;;;;;-4.23;100.00;97465.28;2595783;28;20485;-85
2022/12/09 03:58:41;;;;;;;61.33;20.17;;;;;;;-4.16;100.00;97464.56;2595412;28;20056;-84
2022/12/09 03:59:59;;;;;;;58.80;18.77;;;;;;;-4.36;100.00;97465.94;2595377;28;20053;-84
2022/12/09 04:01:16;;;;;;;73.90;19.55;;;;;;;-4.41;100.00;97461.63;2595398;28;20064;-85
2022/12/09 04:02:32;;;;;;;79.50;19.38;;;;;;;-4.52;100.00;97464.84;2595921;28;20607;-86
2022/12/09 04:03:49;;;;;;;59.50;20.67;;;;;;;-4.55;100.00;97456.28;2595629;28;20049;-86
2022/12/09 04:05:05;;;;;;;62.97;19.60;;;;;;;-4.47;100.00;97469.22;2595599;28;20051;-84
2022/12/09 04:06:21;;;;;;;70.07;21.40;;;;;;;-4.27;100.00;97460.97;2595388;28;20053;-87
2022/12/09 04:07:37;;;;;;;72.13;20.48;;;;;;;-4.15;100.00;97468.84;2595392;28;20080;-85
2022/12/09 04:08:52;;;;;;;63.25;19.90;;;;;;;-4.17;100.00;97462.84;2595447;28;20053;-88
2022/12/09 04:10:08;;;;;;;61.47;18.83;;;;;;;-4.04;100.00;97453.63;2595258;28;20141;-86
2022/12/09 04:11:24;;;;;;;55.90;19.60;;;;;;;-3.94;100.00;97458.88;2595403;28;20108;-85
2022/12/09 04:12:40;;;;;;;62.35;18.73;;;;;;;-3.97;100.00;97459.69;2595988;28;20088;-84
2022/12/09 04:13:56;;;;;;;59.70;19.05;;;;;;;-3.97;100.00;97455.47;2595799;28;20681;-87
2022/12/09 04:15:12;;;;;;;59.08;18.17;;;;;;;-3.95;100.00;97462.28;2595520;28;20057;-84
2022/12/09 04:16:27;;;;;;;52.05;18.20;;;;;;;-3.79;100.00;97458.22;2595385;28;20317;-85
2022/12/09 04:17:43;;;;;;;48.20;18.27;;;;;;;-3.89;100.00;97453.00;2595768;28;20069;-85
2022/12/09 04:18:58;;;;;;;71.40;19.40;;;;;;;-3.86;100.00;97457.28;2595872;28;20065;-84
2022/12/09 04:20:14;;;;;;;58.00;18.13;;;;;;;-3.93;100.00;97465.72;2595299;28;20147;-84
2022/12/09 04:21:29;;;;;;;62.08;19.63;;;;;;;-3.79;100.00;97459.09;2595668;28;20081;-85
2022/12/09 04:22:45;;;;;;;63.45;21.17;;;;;;;-3.86;100.00;97465.81;2595627;28;20049;-86
2022/12/09 04:24:00;;;;;;;64.72;19.27;;;;;;;-3.86;100.00;97458.16;2595229;28;20045;-84
2022/12/09 04:25:16;;;;;;;62.08;19.85;;;;;;;-3.89;100.00;97452.13;2594829;28;20509;-84
2022/12/09 04:26:32;;;;;;;65.35;18.55;;;;;;;-3.91;100.00;97464.03;2595403;28;20052;-86
2022/12/09 04:27:47;;;;;;;59.78;20.27;;;;;;;-3.91;100.00;97469.16;2595361;28;20045;-85
2022/12/09 04:29:03;;;;;;;52.15;18.90;;;;;;;-4.05;100.00;97468.94;2595411;28;20793;-85
2022/12/09 04:30:19;;;;;;;51.00;19.00;;;;;;;-4.06;100.00;97474.91;2595298;28;20058;-85
2022/12/09 04:31:34;;;;;;;65.22;19.67;;;;;;;-3.96;100.00;97471.63;2594955;28;20046;-85
2022/12/09 04:32:50;;;;;;;55.35;18.88;;;;;;;-3.93;100.00;97468.28;2595597;28;20061;-83
2022/12/09 04:34:06;;;;;;;55.60;18.25;;;;;;;-3.99;100.00;97467.34;2595460;28;20172;-86
2022/12/09 04:35:24;;;;;;;54.13;19.13;;;;;;;-3.92;100.00;97473.41;2595364;28;20128;-83
2022/12/09 04:36:39;;;;;;;62.22;19.60;;;;;;;-3.87;100.00;97471.78;2595692;28;20508;-86
2022/12/09 04:37:57;;;;;;;56.38;17.55;;;;;;;-3.73;100.00;97464.28;2595652;28;20057;-85
2022/12/09 04:39:13;;;;;;;68.32;16.38;;;;;;;-3.59;100.00;97467.03;2595129;28;20132;-85
2022/12/09 04:40:29;;;;;;;53.10;17.90;;;;;;;-3.59;100.00;97469.59;2594576;28;20049;-87
2022/12/09 04:41:44;;;;;;;57.28;16.40;;;;;;;-3.72;100.00;97468.56;2594698;28;20216;-86
2022/12/09 04:43:00;;;;;;;47.78;16.75;;;;;;;-3.69;100.00;97466.06;2595407;28;20343;-86
2022/12/09 04:44:16;;;;;;;55.13;16.85;;;;;;;-3.71;100.00;97466.88;2595737;28;20045;-86
2022/12/09 04:45:31;;;;;;;56.08;17.48;;;;;;;-3.79;100.00;97469.31;2595238;28;20508;-87
2022/12/09 04:46:47;;;;;;;49.42;18.50;;;;;;;-3.84;100.00;97476.94;2595775;28;20533;-89
2022/12/09 04:48:02;;;;;;;44.47;16.73;;;;;;;-3.86;100.00;97473.50;2595437;28;20050;-87
2022/12/09 04:49:18;;;;;;;36.08;14.70;;;;;;;-3.81;100.00;97471.00;2595716;28;20054;-89
2022/12/09 04:50:33;;;;;;;45.00;15.32;;;;;;;-3.73;100.00;97471.94;2595423;28;20045;-87
2022/12/09 04:51:49;;;;;;;38.95;15.63;;;;;;;-3.71;100.00;97461.75;2595058;28;20048;-87
2022/12/09 04:53:04;;;;;;;43.15;15.32;;;;;;;-3.64;100.00;97463.53;2595374;28;20930;-86
2022/12/09 04:54:20;;;;;;;45.67;15.95;;;;;;;-3.55;100.00;97461.09;2595565;28;20056;-86
2022/12/09 04:55:36;;;;;;;38.20;15.20;;;;;;;-3.48;100.00;97461.19;2595413;28;20054;-90
2022/12/09 04:56:51;;;;;;;40.13;15.95;;;;;;;-3.57;100.00;97455.09;2595521;28;20053;-87
2022/12/09 04:58:07;;;;;;;39.10;15.63;;;;;;;-3.79;100.00;97458.22;2595606;28;20057;-87
2022/12/09 04:59:23;;;;;;;38.63;14.27;;;;;;;-3.86;100.00;97455.59;2595240;28;21231;-84
2022/12/09 05:00:38;;;;;;;41.38;15.75;;;;;;;-3.77;100.00;97451.41;2594306;28;20069;-86
2022/12/09 05:01:54;;;;;;;51.20;18.33;;;;;;;-3.59;100.00;97448.25;2595212;28;20045;-85
2022/12/09 05:03:09;;;;;;;50.38;17.13;;;;;;;-3.74;100.00;97446.38;2595579;28;20049;-87
2022/12/09 05:04:25;;;;;;;50.30;17.63;;;;;;;-3.58;100.00;97449.97;2595564;28;20080;-86
2022/12/09 05:05:41;;;;;;;42.08;15.93;;;;;;;-3.66;100.00;97444.75;2595403;28;20115;-85
2022/12/09 05:06:56;;;;;;;40.30;16.80;;;;;;;-3.72;100.00;97440.41;2595436;28;20037;-84
2022/12/09 05:08:12;;;;;;;38.50;15.98;;;;;;;-4.04;100.00;97445.97;2595464;28;20085;-84
2022/12/09 05:09:27;;;;;;;37.08;14.25;;;;;;;-4.13;100.00;97448.38;2594965;28;20053;-88
2022/12/09 05:10:48;;;;;;;40.63;15.85;;;;;;;-4.14;100.00;97439.00;2595028;28;20133;-86
2022/12/09 05:12:03;;;;;;;38.42;14.35;;;;;;;-3.96;100.00;97430.72;2594747;28;20071;-86
2022/12/09 05:13:19;;;;;;;36.75;15.43;;;;;;;-4.04;100.00;97430.63;2595078;28;20073;-85
2022/12/09 05:14:35;;;;;;;37.20;15.55;;;;;;;-3.91;100.00;97430.78;2595017;28;20045;-86
2022/12/09 05:15:50;;;;;;;41.65;15.30;;;;;;;-3.89;100.00;97427.44;2595064;28;20515;-85
2022/12/09 05:17:06;;;;;;;34.85;14.88;;;;;;;-4.09;100.00;97433.97;2595059;28;20049;-86
2022/12/09 05:18:21;;;;;;;38.10;14.38;;;;;;;-3.97;100.00;97434.13;2594479;28;20049;-88
2022/12/09 05:19:37;;;;;;;40.53;13.80;;;;;;;-4.15;100.00;97438.16;2594807;28;20344;-86
2022/12/09 05:20:53;;;;;;;37.08;13.02;;;;;;;-4.17;100.00;97438.97;2594640;28;20049;-87
2022/12/09 05:22:08;;;;;;;36.65;12.68;;;;;;;-4.15;100.00;97440.72;2594618;28;20565;-86
2022/12/09 05:23:24;;;;;;;33.75;13.35;;;;;;;-4.42;100.00;97444.56;2594901;28;20045;-85
2022/12/09 05:24:42;;;;;;;36.88;13.13;;;;;;;-4.29;100.00;97445.59;2595248;28;20216;-87
2022/12/09 05:26:02;;;;;;;35.05;13.75;;;;;;;-4.03;100.00;97441.72;2595070;28;20049;-84
2022/12/09 05:27:17;;;;;;;36.22;13.18;;;;;;;-4.03;100.00;97440.00;2595189;28;20396;-84
2022/12/09 05:28:33;;;;;;;33.83;12.45;;;;;;;-4.04;100.00;97447.69;2595516;28;20053;-86
2022/12/09 05:29:49;;;;;;;35.03;13.68;;;;;;;-4.33;100.00;97443.84;2595524;28;20079;-86
2022/12/09 05:31:08;;;;;;;30.50;12.32;;;;;;;-4.38;100.00;97442.06;2595071;28;20080;-85
2022/12/09 05:32:24;;;;;;;33.55;12.32;;;;;;;-4.60;100.00;97444.31;2594622;28;20056;-85
2022/12/09 05:33:40;;;;;;;32.92;12.30;;;;;;;-4.75;100.00;97443.22;2594775;28;20052;-85
2022/12/09 05:34:56;;;;;;;35.28;13.18;;;;;;;-4.74;100.00;97450.03;2594922;28;20080;-84
2022/12/09 05:36:14;;;;;;;32.30;11.80;;;;;;;-4.69;100.00;97453.53;2594540;28;20049;-86
2022/12/09 05:37:29;;;;;;;35.22;14.48;;;;;;;-4.47;100.00;97453.00;2596489;28;20065;-86
2022/12/09 05:38:45;;;;;;;36.45;12.55;;;;;;;-4.57;100.00;97450.28;2596406;28;20050;-86
2022/12/09 05:40:01;;;;;;;35.25;14.43;;;;;;;-4.56;100.00;97451.16;2596833;28;20986;-85
2022/12/09 05:41:17;;;;;;;34.47;12.85;;;;;;;-4.33;100.00;97451.53;2596573;28;20053;-86
2022/12/09 05:42:33;;;;;;;29.92;13.82;;;;;;;-4.45;100.00;97452.19;2596147;28;20488;-85
2022/12/09 05:43:49;;;;;;;31.08;12.48;;;;;;;-4.55;100.00;97447.78;2596541;28;20049;-85
2022/12/09 05:45:05;;;;;;;32.15;12.68;;;;;;;-4.36;100.00;97453.16;2596632;28;20052;-87
2022/12/09 05:46:21;;;;;;;31.63;11.93;;;;;;;-4.43;100.00;97454.75;2596786;28;20416;-85
2022/12/09 05:47:36;;;;;;;27.23;11.50;;;;;;;-4.48;100.00;97451.28;2596685;28;20343;-87
2022/12/09 05:48:52;;;;;;;28.95;10.98;;;;;;;-4.43;100.00;97455.63;2597123;28;20060;-86
2022/12/09 05:50:08;;;;;;;26.08;10.75;;;;;;;-4.39;100.00;97461.66;2596925;28;20058;-86
2022/12/09 05:51:27;;;;;;;27.13;10.88;;;;;;;-4.25;100.00;97456.75;2596648;28;20041;-86
2022/12/09 05:52:42;;;;;;;27.30;11.25;;;;;;;-4.15;100.00;97453.50;2596908;28;20041;-85
2022/12/09 05:54:03;;;;;;;24.23;10.48;;;;;;;-3.98;100.00;97453.75;2595121;28;20393;-89
2022/12/09 05:55:19;;;;;;;24.92;11.18;;;;;;;-3.84;100.00;97453.91;2596202;28;20492;-86